Time;durP1;ratioP1;P1;durP2;ratioP2;P2;SDS_P1;SDS_P2;PMS_P1;PMS_P2;Temp;Humidity;BMP_temperature;BMP_pressure;BME280_temperature;BME280_humidity;BME280_pressure;Samples;Min_cycle;Max_cycle;Signal;HPM_P1;HPM_P2
2022/10/06 00:02:27;;;;;;;1.70;1.40;;;;;;;10.72;75.40;99621.44;105072;1274;74239;-24
2022/10/06 00:04:54;;;;;;;1.50;1.20;;;;;;;10.49;76.01;99620.34;105002;1273;62086;-24
2022/10/06 00:07:21;;;;;;;4.20;1.20;;;;;;;10.41;76.34;99624.69;104585;1273;61692;-24
2022/10/06 00:09:48;;;;;;;3.50;1.50;;;;;;;10.84;75.29;99623.19;104640;1273;76337;-25
2022/10/06 00:12:15;;;;;;;6.10;1.70;;;;;;;11.05;74.10;99620.08;104828;1273;75712;-25
2022/10/06 00:14:42;;;;;;;3.20;1.70;;;;;;;11.00;73.90;99617.71;104613;1273;75130;-25
2022/10/06 00:17:09;;;;;;;4.60;1.70;;;;;;;10.76;74.52;99617.85;104675;1273;61713;-24
2022/10/06 00:19:36;;;;;;;3.50;1.60;;;;;;;10.43;75.62;99614.52;104585;1273;63371;-24
2022/10/06 00:22:03;;;;;;;2.80;1.20;;;;;;;10.35;75.76;99616.66;104620;1273;76568;-24
2022/10/06 00:24:31;;;;;;;4.70;1.50;;;;;;;10.64;75.39;99618.17;104622;1273;75771;-25
2022/10/06 00:26:58;;;;;;;3.70;1.60;;;;;;;11.14;73.69;99610.95;104587;1273;75366;-25
2022/10/06 00:29:25;;;;;;;3.50;1.60;;;;;;;11.14;72.92;99615.30;104572;1273;63026;-24
2022/10/06 00:31:52;;;;;;;3.10;1.30;;;;;;;10.88;73.35;99616.11;104644;1273;61107;-25
2022/10/06 00:34:19;;;;;;;3.60;1.60;;;;;;;10.72;73.55;99613.15;104706;1273;76319;-24
2022/10/06 00:36:46;;;;;;;3.50;1.90;;;;;;;10.51;73.98;99616.70;104627;1273;77037;-24
2022/10/06 00:39:13;;;;;;;1.50;1.10;;;;;;;10.31;74.78;99615.17;104685;1273;74262;-25
2022/10/06 00:41:41;;;;;;;2.60;1.70;;;;;;;10.56;74.67;99613.04;104686;1273;62342;-24
2022/10/06 00:44:08;;;;;;;2.40;1.60;;;;;;;10.89;73.74;99613.00;104638;1273;61742;-24
2022/10/06 00:46:43;;;;;;;4.40;1.70;;;;;;;10.77;73.38;99613.98;104621;1273;75312;-24
2022/10/06 00:49:14;;;;;;;6.30;1.80;;;;;;;10.44;74.28;99611.81;104616;1273;76801;-24
2022/10/06 00:51:44;;;;;;;4.80;2.00;;;;;;;10.25;75.07;99606.73;104588;1273;75344;-25
2022/10/06 00:54:11;;;;;;;7.10;1.40;;;;;;;9.93;76.22;99609.81;104590;1273;61638;-24
2022/10/06 00:56:39;;;;;;;5.20;1.70;;;;;;;9.84;77.05;99609.74;104624;1274;61104;-24
2022/10/06 00:59:09;;;;;;;4.80;2.00;;;;;;;10.30;75.39;99605.66;104728;1273;76403;-25
2022/10/06 01:01:36;;;;;;;4.90;1.50;;;;;;;10.48;74.23;99604.28;104651;1273;77139;-24
2022/10/06 01:04:05;;;;;;;8.90;2.20;;;;;;;10.40;74.27;99603.98;104955;1273;75364;-26
2022/10/06 01:06:44;;;;;;;9.90;1.90;;;;;;;10.23;74.47;99602.02;104649;1273;62792;-25
2022/10/06 01:09:13;;;;;;;4.50;1.70;;;;;;;9.92;75.48;99600.52;104466;1273;63019;-25
2022/10/06 01:11:41;;;;;;;7.70;1.90;;;;;;;9.69;76.03;99596.94;104488;1274;76555;-25
2022/10/06 01:14:09;;;;;;;3.00;1.40;;;;;;;9.49;77.18;99599.52;104736;1274;77122;-24
2022/10/06 01:16:36;;;;;;;4.60;1.60;;;;;;;9.86;76.76;99599.08;104668;1274;74419;-25
2022/10/06 01:19:05;;;;;;;6.00;1.70;;;;;;;10.23;74.99;99601.13;104625;1274;63062;-25
2022/10/06 01:21:37;;;;;;;4.50;1.60;;;;;;;10.16;74.87;99597.69;104665;1274;61766;-24
2022/10/06 01:24:06;;;;;;;8.10;3.20;;;;;;;9.92;75.63;99597.11;104638;1274;75490;-25
2022/10/06 01:26:35;;;;;;;6.90;1.90;;;;;;;9.70;75.86;99594.07;104703;1274;76915;-25
2022/10/06 01:29:02;;;;;;;5.30;2.70;;;;;;;9.42;76.96;99591.11;104616;1274;75131;-25
2022/10/06 01:31:29;;;;;;;5.10;1.80;;;;;;;9.17;78.34;99590.57;104596;1274;63608;-25
2022/10/06 01:33:58;;;;;;;6.00;2.10;;;;;;;9.54;77.68;99586.32;104613;1274;61881;-25
2022/10/06 01:36:25;;;;;;;5.10;1.90;;;;;;;9.90;76.07;99584.91;104709;1274;75568;-25
2022/10/06 01:38:53;;;;;;;3.70;1.70;;;;;;;9.82;75.80;99584.73;104667;1274;76690;-25
2022/10/06 01:41:21;;;;;;;5.50;1.90;;;;;;;9.67;76.05;99585.47;104636;1274;75154;-25
2022/10/06 01:43:48;;;;;;;4.70;1.70;;;;;;;9.42;76.48;99585.17;104645;1274;61836;-25
2022/10/06 01:46:15;;;;;;;6.50;2.40;;;;;;;9.18;77.18;99586.64;104721;1274;62998;-24
2022/10/06 01:48:42;;;;;;;11.50;1.70;;;;;;;8.99;78.17;99584.95;104694;1274;75477;-25
2022/10/06 01:51:17;;;;;;;6.20;2.20;;;;;;;9.30;77.77;99581.85;104689;1274;75957;-25
2022/10/06 01:53:44;;;;;;;3.70;2.10;;;;;;;9.65;76.28;99586.41;104698;1274;73069;-25
2022/10/06 01:56:12;;;;;;;8.00;2.30;;;;;;;9.65;75.98;99583.34;104710;1274;61674;-25
2022/10/06 01:58:40;;;;;;;7.20;2.00;;;;;;;9.49;75.92;99581.83;104757;1274;61888;-25
2022/10/06 02:01:08;;;;;;;5.60;1.90;;;;;;;9.32;76.09;99586.08;104716;1274;76090;-25
2022/10/06 02:03:36;;;;;;;4.10;1.90;;;;;;;9.01;77.23;99583.65;104462;1277;76802;-25
2022/10/06 02:06:04;;;;;;;9.50;2.40;;;;;;;8.82;77.79;99580.00;104667;1274;73877;-23
2022/10/06 02:08:32;;;;;;;10.30;2.40;;;;;;;9.09;78.08;99578.55;104767;1274;61702;-24
2022/10/06 02:11:08;;;;;;;7.70;2.20;;;;;;;9.58;76.06;99576.34;104781;1274;62701;-24
2022/10/06 02:13:39;;;;;;;4.40;2.00;;;;;;;9.55;75.33;99573.47;104649;1273;76554;-24
2022/10/06 02:16:07;;;;;;;6.20;2.00;;;;;;;9.20;76.64;99572.65;104747;1273;75974;-24
2022/10/06 02:18:35;;;;;;;4.50;1.90;;;;;;;8.97;77.28;99569.86;104684;1273;74394;-24
2022/10/06 02:21:02;;;;;;;8.20;2.40;;;;;;;8.76;77.50;99576.96;104716;1273;61199;-24
2022/10/06 02:23:29;;;;;;;6.60;2.00;;;;;;;8.58;78.17;99582.63;104554;1273;62215;-24
2022/10/06 02:26:00;;;;;;;4.90;1.80;;;;;;;9.01;77.67;99586.36;104783;1274;75461;-24
2022/10/06 02:28:28;;;;;;;10.20;2.20;;;;;;;9.46;76.02;99586.33;104470;1276;75895;-24
2022/10/06 02:31:02;;;;;;;6.40;2.20;;;;;;;9.41;75.72;99586.70;104698;1273;75494;-24
2022/10/06 02:33:29;;;;;;;9.10;2.20;;;;;;;9.16;76.72;99587.48;104458;1274;63175;-24
2022/10/06 02:35:57;;;;;;;11.20;2.40;;;;;;;9.03;76.55;99586.60;104665;1273;61936;-24
2022/10/06 02:38:25;;;;;;;5.70;2.40;;;;;;;8.74;77.63;99590.55;104681;1273;75245;-25
2022/10/06 02:40:53;;;;;;;6.60;1.70;;;;;;;8.55;78.45;99589.36;104690;1273;76010;-24
2022/10/06 02:43:20;;;;;;;8.10;2.60;;;;;;;8.94;77.86;99590.80;104647;1273;74339;-25
2022/10/06 02:45:54;;;;;;;6.20;2.20;;;;;;;9.41;76.12;99585.63;104632;1273;62833;-25
2022/10/06 02:48:23;;;;;;;8.70;2.00;;;;;;;9.37;75.53;99583.45;104614;1273;62123;-25
2022/10/06 02:50:59;;;;;;;6.70;2.20;;;;;;;9.15;76.05;99584.77;104524;1273;76567;-24
2022/10/06 02:53:26;;;;;;;9.70;2.40;;;;;;;8.80;77.06;99585.52;104398;1273;76998;-25
2022/10/06 02:56:01;;;;;;;5.20;2.10;;;;;;;8.57;77.83;99582.83;104441;1273;75324;-25
2022/10/06 02:58:28;;;;;;;3.20;1.40;;;;;;;8.42;78.43;99585.81;104476;1274;64605;-24
2022/10/06 03:01:01;;;;;;;5.30;1.40;;;;;;;8.96;77.57;99581.73;104707;1273;63150;-24
2022/10/06 03:03:29;;;;;;;7.30;1.80;;;;;;;9.36;76.12;99580.80;104358;1276;76790;-25
2022/10/06 03:06:03;;;;;;;7.90;2.20;;;;;;;9.25;75.55;99581.18;104616;1273;76804;-25
2022/10/06 03:08:31;;;;;;;8.90;2.50;;;;;;;9.05;76.11;99584.07;104614;1273;75495;-25
2022/10/06 03:11:01;;;;;;;6.40;1.80;;;;;;;8.85;76.51;99585.03;104354;1273;63132;-25
2022/10/06 03:13:29;;;;;;;8.50;2.00;;;;;;;8.61;77.02;99589.31;104278;1273;61045;-24
2022/10/06 03:15:56;;;;;;;6.90;1.30;;;;;;;8.39;78.00;99587.23;104673;1273;75770;-24
2022/10/06 03:18:24;;;;;;;9.60;1.70;;;;;;;8.80;77.39;99588.80;104565;1273;75840;-25
2022/10/06 03:20:52;;;;;;;4.60;1.50;;;;;;;9.29;75.86;99585.75;104676;1273;75607;-25
2022/10/06 03:23:20;;;;;;;4.80;1.60;;;;;;;9.31;75.50;99581.63;104651;1272;62008;-24
2022/10/06 03:25:55;;;;;;;3.10;2.10;;;;;;;9.11;75.80;99587.82;103854;1273;1032787;-25
2022/10/06 03:28:22;;;;;;;3.00;1.70;;;;;;;8.89;76.04;99588.02;104420;1274;75466;-25
2022/10/06 03:30:50;;;;;;;3.00;1.60;;;;;;;8.65;76.55;99590.30;104725;1273;75824;-25
2022/10/06 03:33:17;;;;;;;4.30;1.80;;;;;;;8.36;78.08;99589.82;104715;1273;75435;-24
2022/10/06 03:35:45;;;;;;;7.20;1.40;;;;;;;8.22;78.03;99588.31;104678;1273;63762;-25
2022/10/06 03:38:12;;;;;;;6.20;1.50;;;;;;;8.69;77.84;99590.02;104953;1274;63092;-25
2022/10/06 03:40:39;;;;;;;4.80;1.60;;;;;;;9.22;76.17;99585.34;104988;1273;75481;-25
2022/10/06 03:43:08;;;;;;;4.40;1.70;;;;;;;9.27;75.39;99588.14;104971;1273;77014;-24
2022/10/06 03:45:35;;;;;;;3.70;1.60;;;;;;;9.03;75.68;99585.04;104592;1273;75144;-25
2022/10/06 03:48:03;;;;;;;7.20;1.70;;;;;;;8.75;76.18;99588.41;104632;1272;61893;-24
2022/10/06 03:50:31;;;;;;;9.20;2.10;;;;;;;8.54;76.48;99586.30;104974;1273;63011;-25
2022/10/06 03:52:58;;;;;;;4.20;1.70;;;;;;;8.30;77.05;99587.48;105049;1273;75467;-25
2022/10/06 03:55:25;;;;;;;2.50;1.20;;;;;;;8.10;78.04;99591.11;104951;1273;75996;-22
2022/10/06 03:57:56;;;;;;;2.80;1.50;;;;;;;8.58;77.72;99594.02;104982;1273;75152;-23
2022/10/06 04:00:23;;;;;;;2.90;1.50;;;;;;;9.09;76.18;99590.90;105002;1273;61083;-23
2022/10/06 04:02:50;;;;;;;6.30;2.00;;;;;;;9.08;75.58;99590.27;104669;1273;62912;-23
2022/10/06 04:05:17;;;;;;;3.60;1.70;;;;;;;8.87;76.04;99594.95;104681;1273;76374;-25
2022/10/06 04:07:45;;;;;;;4.20;1.60;;;;;;;8.61;76.76;99591.06;104701;1273;77314;-26
2022/10/06 04:10:12;;;;;;;2.50;1.80;;;;;;;8.35;77.38;99593.92;104634;1273;75115;-26
2022/10/06 04:12:39;;;;;;;4.90;1.60;;;;;;;8.09;78.44;99590.63;104653;1273;63618;-26
2022/10/06 04:15:07;;;;;;;11.90;1.60;;;;;;;8.48;77.87;99588.27;104601;1273;61979;-26
2022/10/06 04:17:34;;;;;;;3.40;1.80;;;;;;;8.85;76.65;99586.95;104441;1273;75582;-26
2022/10/06 04:20:01;;;;;;;3.70;2.20;;;;;;;8.80;76.11;99588.27;104587;1273;75897;-26
2022/10/06 04:22:28;;;;;;;5.90;1.90;;;;;;;8.56;76.82;99589.98;104612;1273;75427;-23
2022/10/06 04:24:55;;;;;;;5.30;2.10;;;;;;;8.26;77.89;99592.23;104617;1273;61904;-25
2022/10/06 04:27:29;;;;;;;4.00;1.60;;;;;;;8.07;78.50;99591.68;104628;1273;63093;-26
2022/10/06 04:30:09;;;;;;;4.40;1.20;;;;;;;7.92;79.04;99595.85;104638;1273;76533;-26
2022/10/06 04:32:37;;;;;;;2.90;1.60;;;;;;;8.36;78.28;99595.25;104520;1273;77045;-26
2022/10/06 04:35:05;;;;;;;3.80;1.70;;;;;;;8.72;76.88;99596.02;104835;1273;73390;-26
2022/10/06 04:37:32;;;;;;;5.00;2.00;;;;;;;8.71;76.47;99594.91;104708;1274;63132;-25
2022/10/06 04:40:00;;;;;;;3.90;1.60;;;;;;;8.44;77.29;99597.66;104807;1274;61961;-25
2022/10/06 04:42:29;;;;;;;2.30;1.60;;;;;;;8.28;77.92;99597.61;104700;1273;75272;-26
2022/10/06 04:45:03;;;;;;;3.50;2.30;;;;;;;8.06;78.77;99598.77;104785;1273;76044;-26
2022/10/06 04:47:30;;;;;;;4.20;1.60;;;;;;;8.02;79.43;99600.95;104778;1274;74860;-26
2022/10/06 04:52:23;;;;;;;3.60;1.70;;;;;;;8.76;77.56;99601.90;101680;1308;600384;-23
2022/10/06 04:54:50;;;;;;;7.70;1.90;;;;;;;8.65;77.41;99600.48;104290;1284;62054;-23
2022/10/06 04:57:17;;;;;;;4.80;2.20;;;;;;;8.49;77.62;99602.71;104250;1284;63041;-25
2022/10/06 05:02:37;;;;;;;2.60;1.20;;;;;;;8.22;78.89;99607.34;103884;1287;75817;-24
2022/10/06 05:05:06;;;;;;;5.70;1.80;;;;;;;8.86;77.62;99605.22;103547;1282;1098661;-24
2022/10/06 05:07:33;;;;;;;2.80;1.40;;;;;;;9.29;75.21;99603.93;104293;1281;61752;-25
2022/10/06 05:10:01;;;;;;;4.50;1.80;;;;;;;9.47;74.89;99602.73;104351;1281;61190;-24
2022/10/06 05:12:30;;;;;;;4.30;1.60;;;;;;;9.36;74.68;99605.71;104395;1281;74108;-24
2022/10/06 05:14:57;;;;;;;6.30;2.10;;;;;;;9.14;75.32;99602.20;104441;1281;77109;-24
2022/10/06 05:17:24;;;;;;;5.10;1.90;;;;;;;8.99;76.07;99608.85;104441;1281;75150;-24
2022/10/06 05:19:52;;;;;;;2.10;1.30;;;;;;;8.96;76.35;99609.03;104433;1281;63506;-24
2022/10/06 05:22:19;;;;;;;2.50;1.70;;;;;;;9.35;75.15;99613.45;104441;1281;61943;-24
2022/10/06 05:24:48;;;;;;;5.30;1.70;;;;;;;9.83;74.05;99613.95;104870;1274;74570;-24
2022/10/06 05:27:16;;;;;;;4.00;1.70;;;;;;;9.86;73.53;99615.70;105027;1274;75911;-24
2022/10/06 05:29:43;;;;;;;4.30;1.90;;;;;;;9.68;73.90;99618.66;104827;1274;74591;-24
2022/10/06 05:32:11;;;;;;;4.50;1.90;;;;;;;9.44;74.60;99621.11;105017;1274;61366;-24
2022/10/06 05:34:38;;;;;;;5.40;1.70;;;;;;;9.28;75.39;99621.87;104832;1274;61090;-24
2022/10/06 05:37:05;;;;;;;6.70;1.80;;;;;;;9.22;76.23;99625.36;104836;1274;75732;-24
2022/10/06 05:39:33;;;;;;;5.20;1.40;;;;;;;9.65;75.02;99623.73;105097;1274;75947;-24
2022/10/06 05:42:00;;;;;;;5.00;2.20;;;;;;;10.13;73.41;99630.30;105057;1274;75389;-24
2022/10/06 05:44:28;;;;;;;10.00;2.20;;;;;;;10.20;73.12;99634.16;105120;1274;61989;-24
2022/10/06 05:46:58;;;;;;;5.30;2.30;;;;;;;10.14;73.24;99631.94;104652;1277;61891;-24
2022/10/06 05:49:25;;;;;;;4.90;1.80;;;;;;;9.98;73.88;99634.14;104706;1276;75833;-24
2022/10/06 05:51:59;;;;;;;2.20;1.30;;;;;;;9.91;74.14;99637.52;104582;1274;75726;-24
2022/10/06 05:54:29;;;;;;;4.40;1.80;;;;;;;9.87;74.39;99636.80;104579;1274;75396;-24
2022/10/06 05:56:56;;;;;;;4.80;2.50;;;;;;;10.35;73.71;99639.55;104692;1274;61874;-24
2022/10/06 05:59:23;;;;;;;5.20;1.80;;;;;;;10.58;72.26;99643.48;104301;1277;62035;-24
2022/10/06 06:01:52;;;;;;;6.20;1.90;;;;;;;10.70;72.79;99645.20;104698;1274;75514;-24
2022/10/06 06:04:28;;;;;;;2.90;1.90;;;;;;;10.57;72.44;99646.66;104849;1274;76068;-24
2022/10/06 06:06:55;;;;;;;2.80;1.70;;;;;;;10.53;72.77;99648.34;104835;1274;74353;-24
2022/10/06 06:09:25;;;;;;;2.70;1.40;;;;;;;10.47;72.51;99642.88;104738;1276;62029;-24
2022/10/06 06:11:54;;;;;;;2.40;1.30;;;;;;;10.74;72.70;99647.20;104821;1274;62852;-24
2022/10/06 06:17:19;;;;;;;4.20;1.70;;;;;;;11.52;69.23;99653.83;104569;1277;76765;-24
2022/10/06 06:19:46;;;;;;;3.80;1.80;;;;;;;11.47;69.14;99652.95;104639;1277;75522;-24
2022/10/06 06:22:14;;;;;;;3.60;1.90;;;;;;;11.35;68.85;99648.14;104607;1274;62053;-24
2022/10/06 06:24:43;;;;;;;5.10;1.60;;;;;;;11.36;69.50;99651.06;104633;1274;62885;-24
2022/10/06 06:27:10;;;;;;;2.80;1.70;;;;;;;11.33;68.89;99650.71;104565;1274;75489;-24
2022/10/06 06:29:39;;;;;;;2.70;1.70;;;;;;;11.34;69.71;99648.92;104762;1274;77048;-24
2022/10/06 06:32:08;;;;;;;4.90;1.40;;;;;;;11.39;68.86;99649.40;104602;1274;74330;-24
2022/10/06 06:34:36;;;;;;;2.50;1.50;;;;;;;11.91;68.15;99653.27;104692;1277;62184;-24
2022/10/06 06:37:03;;;;;;;3.50;1.70;;;;;;;12.33;67.44;99657.20;104698;1274;63053;-24
2022/10/06 06:39:36;;;;;;;3.50;1.50;;;;;;;12.41;65.65;99655.35;104593;1274;73470;-24
2022/10/06 06:42:04;;;;;;;4.80;1.70;;;;;;;12.42;65.94;99658.08;104583;1274;76793;-24
2022/10/06 06:44:37;;;;;;;2.80;1.30;;;;;;;12.37;66.09;99657.98;104589;1274;74196;-24
2022/10/06 06:47:16;;;;;;;7.20;2.30;;;;;;;12.33;66.45;99657.35;104467;1277;63083;-24
2022/10/06 06:49:46;;;;;;;4.00;1.60;;;;;;;12.29;66.31;99653.67;104600;1274;63318;-24
2022/10/06 06:52:14;;;;;;;5.80;1.70;;;;;;;12.28;66.58;99658.96;104566;1274;74694;-24
2022/10/06 06:54:41;;;;;;;2.70;1.50;;;;;;;12.29;67.11;99661.89;104617;1274;76960;-24
2022/10/06 06:57:12;;;;;;;2.90;1.50;;;;;;;12.33;67.14;99663.30;104556;1274;74207;-24
2022/10/06 06:59:39;;;;;;;2.40;1.80;;;;;;;12.45;66.98;99663.92;104650;1274;63345;-24
2022/10/06 07:02:10;;;;;;;5.10;1.50;;;;;;;13.01;64.76;99655.80;104617;1277;63292;-24
2022/10/06 07:04:42;;;;;;;2.90;1.60;;;;;;;13.35;62.90;99651.42;104661;1274;74650;-24
2022/10/06 07:07:12;;;;;;;2.80;1.60;;;;;;;13.41;63.57;99656.40;104578;1274;76742;-24
2022/10/06 07:09:40;;;;;;;1.60;1.30;;;;;;;13.49;63.16;99656.43;104353;1277;74361;-24
2022/10/06 07:12:10;;;;;;;4.60;2.00;;;;;;;13.46;63.42;99658.92;104804;1274;62102;-24
2022/10/06 07:25:05;;;;;;;2.00;1.40;;;;;;;13.45;63.38;99665.45;104808;1274;62027;-24
2022/10/06 07:25:51;;;;;;;5.30;1.90;;;;;;;13.58;63.21;99667.91;104814;1274;61910;-24
2022/10/06 07:28:19;;;;;;;3.30;1.60;;;;;;;13.62;62.03;99660.23;104708;1274;63439;-24
2022/10/06 07:30:47;;;;;;;4.10;2.00;;;;;;;13.67;62.23;99660.65;104681;1277;75722;-24
2022/10/06 07:33:18;;;;;;;3.10;1.40;;;;;;;13.69;62.04;99659.80;104741;1274;74737;-24
2022/10/06 07:35:46;;;;;;;8.00;1.70;;;;;;;13.75;61.37;99654.52;104606;1274;73221;-24
2022/10/06 07:38:15;;;;;;;5.10;1.50;;;;;;;13.81;61.46;99655.13;104567;1274;61876;-24
2022/10/06 07:40:53;;;;;;;4.50;1.50;;;;;;;13.92;61.94;99656.45;104585;1274;61383;-24
2022/10/06 07:43:41;;;;;;;6.10;1.50;;;;;;;14.06;61.34;99652.64;104646;1274;75999;-24
2022/10/06 07:46:09;;;;;;;2.90;1.50;;;;;;;14.21;61.68;99657.44;104576;1274;75926;-25
2022/10/06 07:48:43;;;;;;;3.30;1.50;;;;;;;14.33;61.65;99653.27;104296;1277;74032;-24
2022/10/06 07:51:15;;;;;;;4.80;1.60;;;;;;;14.41;60.22;99652.77;104658;1274;62092;-24
2022/10/06 07:53:49;;;;;;;1.90;1.40;;;;;;;14.51;60.19;99650.81;104307;1274;61308;-24
2022/10/06 07:56:34;;;;;;;4.90;1.50;;;;;;;14.68;60.01;99646.75;104701;1274;75726;-24
2022/10/06 07:59:01;;;;;;;3.90;1.50;;;;;;;14.75;58.74;99650.73;104656;1276;77269;-24
2022/10/06 08:01:29;;;;;;;3.80;1.60;;;;;;;14.77;58.93;99647.91;104701;1274;72714;-24
2022/10/06 08:03:56;;;;;;;3.30;1.20;;;;;;;14.81;58.46;99650.15;104793;1274;61130;-24
2022/10/06 08:06:24;;;;;;;3.50;1.40;;;;;;;14.92;58.33;99649.89;104485;1277;61921;-24
2022/10/06 08:08:51;;;;;;;2.10;1.20;;;;;;;15.04;57.91;99647.92;104605;1274;75632;-24
2022/10/06 08:11:20;;;;;;;4.00;1.90;;;;;;;15.17;57.31;99647.86;104681;1277;76972;-24
2022/10/06 08:13:47;;;;;;;4.30;1.60;;;;;;;15.26;55.78;99647.73;105162;1271;74066;-24
2022/10/06 08:16:19;;;;;;;3.10;1.80;;;;;;;15.37;57.03;99650.70;105123;1271;62102;-24
2022/10/06 08:18:52;;;;;;;1.70;1.30;;;;;;;15.64;57.16;99655.27;105140;1271;61722;-24
2022/10/06 08:21:21;;;;;;;3.20;1.40;;;;;;;15.90;55.69;99650.23;105114;1272;74427;-24
2022/10/06 08:23:49;;;;;;;3.00;1.40;;;;;;;16.01;54.46;99652.19;104944;1272;77001;-24
2022/10/06 08:26:17;;;;;;;2.50;1.20;;;;;;;16.10;55.30;99648.13;104702;1274;75694;-24
2022/10/06 08:28:47;;;;;;;2.20;1.20;;;;;;;16.14;54.06;99641.34;104973;1271;62134;-24
2022/10/06 08:31:14;;;;;;;5.00;1.30;;;;;;;16.43;53.95;99646.84;104706;1271;63138;-23
2022/10/06 08:33:42;;;;;;;2.90;1.40;;;;;;;16.63;52.69;99646.48;104898;1271;75734;-23
2022/10/06 08:36:16;;;;;;;3.30;1.30;;;;;;;16.83;52.49;99644.68;104953;1271;75953;-23
2022/10/06 08:38:48;;;;;;;3.80;1.20;;;;;;;17.04;52.39;99644.59;104837;1271;74405;-24
2022/10/06 08:41:27;;;;;;;3.10;1.30;;;;;;;17.20;51.99;99642.01;105094;1271;63063;-24
2022/10/06 08:44:12;;;;;;;2.90;1.40;;;;;;;17.40;52.13;99646.85;104723;1271;63082;-23
2022/10/06 08:46:59;;;;;;;2.50;1.40;;;;;;;17.57;50.47;99641.59;105038;1271;75540;-24
2022/10/06 08:49:32;;;;;;;1.90;1.30;;;;;;;17.65;50.21;99643.84;105179;1271;76993;-24
2022/10/06 08:51:59;;;;;;;;;;;;;;;17.76;49.64;99645.27;104890;1273;74411;-24
2022/10/06 08:54:32;;;;;;;2.00;1.20;;;;;;;17.92;49.80;99642.44;105020;1274;62441;-24
2022/10/06 08:57:26;;;;;;;3.70;1.40;;;;;;;18.07;50.58;99645.52;104733;1274;61972;-24
2022/10/06 08:59:54;;;;;;;5.70;1.40;;;;;;;18.19;48.64;99637.82;104538;1274;75083;-24
2022/10/06 09:02:24;;;;;;;6.40;1.80;;;;;;;18.33;48.69;99640.89;104821;1274;75858;-24
2022/10/06 09:04:52;;;;;;;2.00;1.30;;;;;;;18.43;48.78;99643.59;104741;1274;75355;-24
2022/10/06 09:07:24;;;;;;;2.70;1.60;;;;;;;18.58;49.23;99643.91;104633;1274;63217;-24
2022/10/06 09:10:03;;;;;;;2.50;1.40;;;;;;;18.58;48.61;99636.88;104444;1274;63142;-24
2022/10/06 09:12:56;;;;;;;2.40;1.50;;;;;;;18.67;47.91;99640.02;104691;1274;75269;-24
2022/10/06 09:15:40;;;;;;;3.10;1.40;;;;;;;18.45;48.34;99636.00;104480;1274;75993;-24
2022/10/06 09:18:19;;;;;;;3.00;1.50;;;;;;;18.48;49.18;99635.78;104699;1274;75445;-24
2022/10/06 09:20:53;;;;;;;4.20;1.60;;;;;;;18.29;48.43;99632.17;104749;1274;61883;-24
2022/10/06 09:26:09;;;;;;;1.50;1.30;;;;;;;19.05;48.28;99636.45;104712;1274;74924;-24
2022/10/06 09:28:37;;;;;;;3.40;1.30;;;;;;;19.16;46.71;99634.80;104747;1274;74936;-24
2022/10/06 09:31:17;;;;;;;1.80;1.40;;;;;;;19.10;47.06;99633.00;104801;1274;75725;-24
2022/10/06 09:33:44;;;;;;;1.70;1.20;;;;;;;19.04;46.88;99633.30;104630;1274;63126;-24
2022/10/06 09:36:11;;;;;;;3.90;1.90;;;;;;;19.16;47.61;99638.67;104564;1274;62910;-24
2022/10/06 09:38:52;;;;;;;3.50;1.60;;;;;;;19.31;47.00;99640.73;104857;1274;75550;-25
2022/10/06 09:41:27;;;;;;;5.20;1.40;;;;;;;19.28;47.11;99642.31;104621;1274;75857;-24
2022/10/06 09:43:59;;;;;;;3.00;1.50;;;;;;;19.58;46.60;99643.97;104748;1274;74344;-24
2022/10/06 09:46:30;;;;;;;2.40;1.30;;;;;;;19.68;46.31;99635.13;104845;1274;63071;-24
2022/10/06 09:49:25;;;;;;;3.40;1.30;;;;;;;19.98;46.50;99646.30;104848;1274;63315;-24
2022/10/06 09:52:03;;;;;;;3.00;1.30;;;;;;;19.99;45.15;99643.10;104566;1274;76923;-24
2022/10/06 09:54:30;;;;;;;4.00;1.40;;;;;;;20.15;45.05;99644.04;104689;1271;75978;-24
2022/10/06 09:56:58;;;;;;;2.60;1.40;;;;;;;20.16;44.70;99638.84;105063;1274;75383;-24
2022/10/06 09:59:32;;;;;;;4.00;2.10;;;;;;;19.99;44.67;99633.35;104906;1272;61731;-24
2022/10/06 10:02:25;;;;;;;9.50;1.70;;;;;;;19.96;44.61;99627.67;104823;1271;63077;-24
2022/10/06 10:04:54;;;;;;;4.70;1.40;;;;;;;20.08;44.49;99633.05;104941;1272;76589;-24
2022/10/06 10:07:26;;;;;;;1.40;1.10;;;;;;;20.25;44.58;99627.23;104785;1272;76720;-24
2022/10/06 10:10:10;;;;;;;2.50;1.40;;;;;;;20.53;44.95;99626.80;104703;1271;75502;-25
2022/10/06 10:12:37;;;;;;;2.50;1.40;;;;;;;20.52;44.23;99623.92;104932;1274;63419;-24
2022/10/06 10:15:10;;;;;;;4.20;1.50;;;;;;;20.45;44.37;99621.85;104705;1271;62909;-24
2022/10/06 10:17:50;;;;;;;2.20;1.40;;;;;;;20.50;44.35;99627.31;104732;1271;75131;-24
2022/10/06 10:20:23;;;;;;;5.00;1.70;;;;;;;20.79;43.83;99621.86;104899;1273;76916;-24
2022/10/06 10:22:51;;;;;;;;;;;;;;;20.80;43.82;99621.39;105104;1271;75396;-24
2022/10/06 10:25:31;;;;;;;2.10;1.40;;;;;;;20.89;43.84;99614.90;104686;1274;62824;-24
2022/10/06 10:28:12;;;;;;;5.70;1.10;;;;;;;21.03;43.21;99612.64;104731;1274;61763;-24
2022/10/06 10:30:46;;;;;;;4.30;1.50;;;;;;;20.92;43.37;99610.91;104964;1271;76392;-24
2022/10/06 10:33:29;;;;;;;3.30;1.10;;;;;;;20.91;44.39;99614.56;104880;1274;77288;-24
2022/10/06 10:35:56;;;;;;;2.90;1.30;;;;;;;21.10;43.50;99615.15;104939;1271;75609;-24
2022/10/06 10:38:23;;;;;;;2.50;1.30;;;;;;;21.11;43.19;99616.03;104927;1274;63026;-24
2022/10/06 10:41:13;;;;;;;1.60;1.20;;;;;;;21.17;43.52;99615.37;104933;1274;61314;-24
2022/10/06 10:43:52;;;;;;;2.50;1.50;;;;;;;21.29;43.17;99612.41;104938;1272;76065;-24
2022/10/06 10:46:27;;;;;;;1.80;1.20;;;;;;;21.13;42.53;99611.44;104889;1274;75160;-24
2022/10/06 10:49:03;;;;;;;3.00;1.10;;;;;;;20.99;43.33;99611.83;105057;1272;75408;-24
2022/10/06 10:51:44;;;;;;;5.40;1.10;;;;;;;21.11;43.23;99614.84;104709;1271;61974;-24
2022/10/06 10:54:17;;;;;;;4.30;1.50;;;;;;;20.99;44.02;99612.00;104781;1272;61299;-24
2022/10/06 10:56:47;;;;;;;2.00;1.10;;;;;;;21.04;43.52;99612.98;104923;1274;75586;-24
2022/10/06 10:59:34;;;;;;;2.90;1.50;;;;;;;21.14;43.06;99610.98;104753;1274;75708;-24
2022/10/06 11:02:17;;;;;;;1.50;1.20;;;;;;;20.87;43.69;99608.41;104633;1275;73281;-25
2022/10/06 11:05:13;;;;;;;3.10;1.60;;;;;;;20.78;43.66;99607.54;104775;1271;62805;-24
2022/10/06 11:07:45;;;;;;;2.50;1.40;;;;;;;20.98;43.77;99608.01;104833;1274;62808;-24
2022/10/06 11:10:15;;;;;;;5.80;1.50;;;;;;;21.06;42.89;99602.58;104624;1274;75889;-24
2022/10/06 11:13:08;;;;;;;3.80;1.00;;;;;;;21.12;43.16;99611.05;104759;1274;77502;-24
2022/10/06 11:15:42;;;;;;;1.70;1.30;;;;;;;21.23;43.64;99613.27;104697;1274;75465;-24
2022/10/06 11:18:48;;;;;;;2.10;1.30;;;;;;;21.33;43.39;99609.63;104795;1274;63205;-24
2022/10/06 11:21:20;;;;;;;2.40;1.30;;;;;;;21.39;43.55;99614.72;105024;1274;62845;-24
2022/10/06 11:23:53;;;;;;;2.20;1.20;;;;;;;21.32;43.10;99613.48;104868;1274;76627;-24
2022/10/06 11:26:34;;;;;;;1.90;1.30;;;;;;;21.34;44.37;99617.69;105097;1274;75692;-24
2022/10/06 11:29:39;;;;;;;2.70;1.40;;;;;;;21.27;44.63;99612.14;105098;1272;74932;-24
2022/10/06 11:32:39;;;;;;;1.50;1.20;;;;;;;21.00;44.08;99614.70;104973;1274;63488;-24
2022/10/06 11:35:15;;;;;;;4.70;1.40;;;;;;;20.75;43.79;99614.90;105082;1274;62951;-24
2022/10/06 11:37:55;;;;;;;1.80;1.40;;;;;;;20.76;45.22;99613.27;104687;1274;75260;-24
2022/10/06 11:40:26;;;;;;;2.00;1.20;;;;;;;20.90;46.80;99610.38;104629;1274;75802;-24
2022/10/06 11:42:58;;;;;;;4.20;1.40;;;;;;;20.83;45.64;99605.67;104603;1274;61808;-23
2022/10/06 11:46:04;;;;;;;2.30;1.40;;;;;;;20.54;46.31;99607.11;104575;1274;61794;-23
2022/10/06 11:48:32;;;;;;;7.70;1.50;;;;;;;20.73;45.69;99610.27;104706;1274;62032;-24
2022/10/06 11:51:22;;;;;;;3.80;1.60;;;;;;;20.62;45.73;99602.41;104746;1274;75532;-24
2022/10/06 11:53:50;;;;;;;3.50;1.30;;;;;;;20.39;45.80;99609.66;104710;1271;75969;-23
2022/10/06 11:56:17;;;;;;;8.10;1.50;;;;;;;20.11;46.35;99602.55;104703;1274;74327;-24
2022/10/06 11:58:50;;;;;;;5.60;1.40;;;;;;;19.93;46.46;99605.41;104755;1274;62029;-24
2022/10/06 12:01:30;;;;;;;2.60;1.40;;;;;;;19.85;47.04;99606.70;105133;1271;63152;-24
2022/10/06 12:04:06;;;;;;;2.60;1.30;;;;;;;20.01;47.11;99610.55;105030;1271;74612;-23
2022/10/06 12:06:45;;;;;;;2.70;1.50;;;;;;;19.99;46.92;99600.41;105088;1271;77003;-24
2022/10/06 12:09:31;;;;;;;1.70;1.20;;;;;;;20.05;48.12;99611.35;105105;1271;75153;-22